createdAt,value
2018-04-13T00:01:06.896Z,15.60
2018-04-13T00:03:33.870Z,15.50
2018-04-13T00:06:00.851Z,15.50
2018-04-13T00:08:27.821Z,15.50
2018-04-13T00:10:54.801Z,15.50
2018-04-13T00:13:21.768Z,15.50
2018-04-13T00:15:49.513Z,15.40
2018-04-13T00:18:16.478Z,15.40
2018-04-13T00:20:43.451Z,15.30
2018-04-13T00:23:10.439Z,15.30
2018-04-13T00:25:37.405Z,15.30
2018-04-13T00:28:04.384Z,15.30
2018-04-13T00:30:31.369Z,15.20
2018-04-13T00:32:58.340Z,15.20
2018-04-13T00:35:25.332Z,15.20
2018-04-13T00:37:53.161Z,15.20
2018-04-13T00:40:20.212Z,15.20
2018-04-13T00:42:47.263Z,15.20
2018-04-13T00:45:14.231Z,15.20
2018-04-13T00:47:41.377Z,15.10
2018-04-13T00:50:08.367Z,15.00
2018-04-13T00:52:35.325Z,15.00
2018-04-13T00:55:02.308Z,14.90
2018-04-13T00:57:30.053Z,14.80
2018-04-13T00:59:57.015Z,14.70
2018-04-13T01:02:23.997Z,14.70
2018-04-13T01:04:50.968Z,14.70
2018-04-13T01:07:18.716Z,14.70
2018-04-13T01:09:45.740Z,14.70
2018-04-13T01:12:13.521Z,14.70
2018-04-13T01:14:40.576Z,14.70
2018-04-13T01:17:07.563Z,14.70
2018-04-13T01:19:34.523Z,14.70
2018-04-13T01:22:01.506Z,14.70
2018-04-13T01:24:29.240Z,14.60
2018-04-13T01:26:56.290Z,14.50
2018-04-13T01:29:23.263Z,14.60
2018-04-13T01:31:50.271Z,14.50
2018-04-13T01:34:17.260Z,14.50
2018-04-13T01:36:44.246Z,14.50
2018-04-13T01:39:11.207Z,14.50
2018-04-13T01:41:38.193Z,14.50
2018-04-13T01:44:05.930Z,14.60
2018-04-13T01:46:33.019Z,14.60
2018-04-13T01:48:59.972Z,14.60
2018-04-13T01:51:27.712Z,14.70
2018-04-13T01:53:54.680Z,14.60
2018-04-13T01:56:21.662Z,14.70
2018-04-13T01:58:49.419Z,14.60
2018-04-13T02:01:16.379Z,14.60
2018-04-13T02:03:44.106Z,14.60
2018-04-13T02:06:11.070Z,14.60
2018-04-13T02:08:38.049Z,14.60
2018-04-13T02:11:05.034Z,14.50
2018-04-13T02:13:31.979Z,14.40
2018-04-13T02:15:58.953Z,14.40
2018-04-13T02:18:25.919Z,14.40
2018-04-13T02:20:53.666Z,14.50
2018-04-13T02:23:20.631Z,14.50
2018-04-13T02:25:47.623Z,14.50
2018-04-13T02:28:14.607Z,14.40
2018-04-13T02:30:41.579Z,14.40
2018-04-13T02:33:08.551Z,14.40
2018-04-13T02:35:35.588Z,14.30
2018-04-13T02:38:02.687Z,14.40
2018-04-13T02:40:29.652Z,14.40
2018-04-13T02:42:56.660Z,14.40
2018-04-13T02:45:23.730Z,14.40
2018-04-13T02:47:50.720Z,14.40
2018-04-13T02:50:17.680Z,14.40
2018-04-13T02:52:45.149Z,14.30
2018-04-13T02:55:12.092Z,14.30
2018-04-13T02:57:39.068Z,14.30
2018-04-13T03:00:06.036Z,14.30
2018-04-13T03:02:33.928Z,14.30
2018-04-13T03:05:00.884Z,14.30
2018-04-13T03:07:27.843Z,14.30
2018-04-13T03:09:54.894Z,14.30
2018-04-13T03:12:21.855Z,14.30
2018-04-13T03:14:49.619Z,14.30
2018-04-13T03:17:17.372Z,14.30
2018-04-13T03:19:44.355Z,14.30
2018-04-13T03:22:12.171Z,14.30
2018-04-13T03:24:39.153Z,14.30
2018-04-13T03:27:06.196Z,14.30
2018-04-13T03:29:33.190Z,14.30
2018-04-13T03:32:00.164Z,14.20
2018-04-13T03:34:27.900Z,14.20
2018-04-13T03:36:54.903Z,14.20
2018-04-13T03:39:22.633Z,14.10
2018-04-13T03:41:49.624Z,14.10
2018-04-13T03:44:16.598Z,14.10
2018-04-13T03:46:44.395Z,14.10
2018-04-13T03:49:11.371Z,14.10
2018-04-13T03:51:38.340Z,14.10
2018-04-13T03:54:05.324Z,14.10
2018-04-13T03:56:33.073Z,14.00
2018-04-13T03:59:00.112Z,14.00
2018-04-13T04:01:27.074Z,14.00
2018-04-13T04:03:54.051Z,14.00
2018-04-13T04:06:21.049Z,14.00
2018-04-13T04:08:48.777Z,14.00
2018-04-13T04:11:17.088Z,14.00
2018-04-13T04:13:44.080Z,14.00
2018-04-13T04:16:11.816Z,13.90
2018-04-13T04:18:38.867Z,13.90
2018-04-13T04:21:11.775Z,13.90
2018-04-13T04:23:44.869Z,13.90
2018-04-13T04:26:21.759Z,13.90
2018-04-13T04:28:48.806Z,13.90
2018-04-13T04:31:16.554Z,13.80
2018-04-13T04:33:43.514Z,13.80
2018-04-13T04:36:10.602Z,13.80
2018-04-13T04:38:37.588Z,13.80
2018-04-13T04:41:04.557Z,13.80
2018-04-13T04:43:32.301Z,13.80
2018-04-13T04:45:59.433Z,13.70
2018-04-13T04:48:26.396Z,13.70
2018-04-13T04:50:53.360Z,13.70
2018-04-13T04:53:20.349Z,13.70
2018-04-13T04:55:47.335Z,13.70
2018-04-13T04:58:15.079Z,13.70
2018-04-13T05:00:42.051Z,13.70
2018-04-13T05:03:09.039Z,13.80
2018-04-13T05:05:36.017Z,13.80
2018-04-13T05:08:03.004Z,13.70
2018-04-13T05:10:29.981Z,13.70
2018-04-13T05:12:56.999Z,13.70
2018-04-13T05:15:24.031Z,13.70
2018-04-13T05:17:50.987Z,13.70
2018-04-13T05:20:18.059Z,13.70
2018-04-13T05:22:46.039Z,13.70
2018-04-13T05:25:13.758Z,13.80
2018-04-13T05:27:40.751Z,13.80
2018-04-13T05:30:08.479Z,13.80
2018-04-13T05:32:35.455Z,13.80
2018-04-13T05:35:02.430Z,13.90
2018-04-13T05:37:29.407Z,13.90
2018-04-13T05:39:57.131Z,13.90
2018-04-13T05:42:24.104Z,13.90
2018-04-13T05:44:51.414Z,14.00
2018-04-13T05:47:19.130Z,13.90
2018-04-13T05:49:46.296Z,13.90
2018-04-13T05:52:13.243Z,13.90
2018-04-13T05:54:40.313Z,14.00
2018-04-13T05:57:07.319Z,14.00
2018-04-13T05:59:34.279Z,14.00
2018-04-13T06:02:01.313Z,14.00
2018-04-13T06:04:29.047Z,14.10
2018-04-13T06:06:56.063Z,14.00
2018-04-13T06:09:23.872Z,14.20
2018-04-13T06:11:50.934Z,14.20
2018-04-13T06:14:18.276Z,14.20
2018-04-13T06:16:45.287Z,14.30
2018-04-13T06:19:12.246Z,14.30
2018-04-13T06:21:39.250Z,14.30
2018-04-13T06:24:06.955Z,14.40
2018-04-13T06:26:34.010Z,14.40
2018-04-13T06:29:01.034Z,14.50
2018-04-13T06:31:28.017Z,14.50
2018-04-13T06:33:55.004Z,14.50
2018-04-13T06:36:21.983Z,14.40
2018-04-13T06:38:49.081Z,14.50
2018-04-13T06:41:16.801Z,14.50
2018-04-13T06:43:43.778Z,14.50
2018-04-13T06:46:12.333Z,14.50
2018-04-13T06:48:39.341Z,14.50
2018-04-13T06:51:06.320Z,14.60
2018-04-13T06:53:34.108Z,14.50
2018-04-13T06:56:01.108Z,14.50
2018-04-13T06:58:28.072Z,14.50
2018-04-13T07:00:55.098Z,14.60
2018-04-13T07:03:22.103Z,14.60
2018-04-13T07:05:49.932Z,14.70
2018-04-13T07:08:16.898Z,14.70
2018-04-13T07:10:43.927Z,14.80
2018-04-13T07:13:10.892Z,14.90
2018-04-13T07:15:37.972Z,14.90
2018-04-13T07:18:04.943Z,15.00
2018-04-13T07:20:32.003Z,14.90
2018-04-13T07:22:59.036Z,14.90
2018-04-13T07:25:26.013Z,14.90
2018-04-13T07:27:52.990Z,14.80
2018-04-13T07:30:20.023Z,14.80
2018-04-13T07:32:47.452Z,14.60
2018-04-13T07:35:13.967Z,14.60
2018-04-13T07:37:40.975Z,14.60
2018-04-13T07:40:08.021Z,14.60
2018-04-13T07:42:35.773Z,14.70
2018-04-13T07:45:03.053Z,14.70
2018-04-13T07:47:30.535Z,14.60
2018-04-13T07:49:57.493Z,14.60
2018-04-13T07:52:24.528Z,14.60
2018-04-13T07:54:51.451Z,14.50
2018-04-13T07:57:18.433Z,14.50
2018-04-13T07:59:45.541Z,14.50
2018-04-13T08:02:12.446Z,14.50
2018-04-13T08:04:40.687Z,14.40
2018-04-13T08:07:07.197Z,14.40
2018-04-13T08:09:34.930Z,14.40
2018-04-13T08:12:01.923Z,14.40
2018-04-13T08:14:29.672Z,14.30
2018-04-13T08:16:56.640Z,14.30
2018-04-13T08:19:23.628Z,14.30
2018-04-13T08:21:50.644Z,14.30
2018-04-13T08:24:17.620Z,14.30
2018-04-13T08:26:44.620Z,14.50
2018-04-13T08:29:11.601Z,14.50
2018-04-13T08:31:38.630Z,14.50
2018-04-13T08:34:06.342Z,14.60
2018-04-13T08:36:33.308Z,14.60
2018-04-13T08:39:00.321Z,14.70
2018-04-13T08:41:28.097Z,14.70
2018-04-13T08:43:55.804Z,14.80
2018-04-13T08:46:22.961Z,14.80
2018-04-13T08:48:50.686Z,14.70
2018-04-13T08:51:17.507Z,14.60
2018-04-13T08:53:44.495Z,14.70
2018-04-13T08:56:12.246Z,14.80
2018-04-13T08:58:39.222Z,14.80
2018-04-13T09:01:06.209Z,14.90
2018-04-13T09:03:33.212Z,15.00
2018-04-13T09:06:00.197Z,15.00
2018-04-13T09:08:27.179Z,15.00
2018-04-13T09:10:54.976Z,15.00
2018-04-13T09:13:21.952Z,15.00
2018-04-13T09:15:49.092Z,15.00
2018-04-13T09:18:16.225Z,15.00
2018-04-13T09:20:44.291Z,15.10
2018-04-13T09:23:11.214Z,15.10
2018-04-13T09:25:38.219Z,14.90
2018-04-13T09:28:06.043Z,14.80
2018-04-13T09:30:33.135Z,14.80
2018-04-13T09:33:00.940Z,14.80
2018-04-13T09:35:28.667Z,14.90
2018-04-13T09:37:55.655Z,14.90
2018-04-13T09:40:23.440Z,15.20
2018-04-13T09:42:52.021Z,15.30
2018-04-13T09:45:18.972Z,15.30
2018-04-13T09:47:46.036Z,15.40
2018-04-13T09:50:13.367Z,15.50
2018-04-13T09:52:40.342Z,15.60
2018-04-13T09:55:07.320Z,15.70
2018-04-13T09:57:34.308Z,15.70
2018-04-13T10:00:01.281Z,15.70
2018-04-13T10:02:34.080Z,15.80
2018-04-13T10:05:01.056Z,16.00
2018-04-13T10:07:28.057Z,16.10
2018-04-13T10:09:55.017Z,16.20
2018-04-13T10:12:22.755Z,16.10
2018-04-13T10:14:49.726Z,16.10
2018-04-13T10:17:16.743Z,16.00
2018-04-13T10:19:43.807Z,16.10
2018-04-13T10:22:10.817Z,16.10
2018-04-13T10:24:37.833Z,16.10
2018-04-13T10:27:04.812Z,16.20
2018-04-13T10:29:31.855Z,16.30
2018-04-13T10:31:58.824Z,16.30
2018-04-13T10:34:25.798Z,16.40
2018-04-13T10:36:52.771Z,16.40
2018-04-13T10:39:20.599Z,16.20
2018-04-13T10:41:47.647Z,16.20
2018-04-13T10:44:14.793Z,16.20
2018-04-13T10:46:42.536Z,16.20
2018-04-13T10:49:09.499Z,16.20
2018-04-13T10:51:37.259Z,16.20
2018-04-13T10:54:04.295Z,16.20
2018-04-13T10:56:31.325Z,16.30
2018-04-13T10:58:58.298Z,16.40
2018-04-13T11:01:25.256Z,16.30
2018-04-13T11:03:52.619Z,16.40
2018-04-13T11:06:20.516Z,16.40
2018-04-13T11:08:47.516Z,16.40
2018-04-13T11:11:15.265Z,16.30
2018-04-13T11:13:43.031Z,16.00
2018-04-13T11:16:10.062Z,16.00
2018-04-13T11:18:37.029Z,15.90
2018-04-13T11:21:03.994Z,16.00
2018-04-13T11:23:31.023Z,16.00
2018-04-13T11:25:57.986Z,16.10
2018-04-13T11:28:25.140Z,16.10
2018-04-13T11:30:52.851Z,16.20
2018-04-13T11:33:19.816Z,16.30
2018-04-13T11:35:46.781Z,16.40
2018-04-13T11:38:13.782Z,16.50
2018-04-13T11:40:40.749Z,16.50
2018-04-13T11:43:07.815Z,16.50
2018-04-13T11:45:34.878Z,16.50
2018-04-13T11:48:01.923Z,16.50
2018-04-13T11:50:29.659Z,16.60
2018-04-13T11:52:56.612Z,16.60
2018-04-13T11:55:23.596Z,16.70
2018-04-13T11:57:50.581Z,16.80
2018-04-13T12:00:17.556Z,16.80
2018-04-13T12:02:44.532Z,16.80
2018-04-13T12:05:11.512Z,16.80
2018-04-13T12:07:39.256Z,16.80
2018-04-13T12:10:07.126Z,16.80
2018-04-13T12:12:34.154Z,16.80
2018-04-13T12:15:01.880Z,16.70
2018-04-13T12:17:28.831Z,16.70
2018-04-13T12:19:55.875Z,16.70
2018-04-13T12:22:23.591Z,16.80
2018-04-13T12:24:51.396Z,16.80
2018-04-13T12:27:18.370Z,16.80
2018-04-13T12:29:45.349Z,16.80
2018-04-13T12:32:12.387Z,16.70
2018-04-13T12:34:39.469Z,16.60
2018-04-13T12:37:06.534Z,16.60
2018-04-13T12:39:33.708Z,16.50
2018-04-13T12:42:00.750Z,16.40
2018-04-13T12:44:27.832Z,16.30
2018-04-13T12:46:54.799Z,16.20
2018-04-13T12:49:22.592Z,16.10
2018-04-13T12:51:50.376Z,16.10
2018-04-13T12:54:18.184Z,16.10
2018-04-13T12:56:45.132Z,16.10
2018-04-13T12:59:12.286Z,16.10
2018-04-13T13:01:40.092Z,16.00
2018-04-13T13:04:07.090Z,16.00
2018-04-13T13:06:34.068Z,16.00
2018-04-13T13:09:01.035Z,16.00
2018-04-13T13:11:28.021Z,16.00
2018-04-13T13:13:54.992Z,15.90
2018-04-13T13:16:22.013Z,15.80
2018-04-13T13:18:48.985Z,15.70
2018-04-13T13:21:16.053Z,15.70
2018-04-13T13:23:43.119Z,15.70
2018-04-13T13:26:10.085Z,15.60
2018-04-13T13:28:37.120Z,15.60
2018-04-13T13:31:04.093Z,15.50
2018-04-13T13:33:31.118Z,15.50
2018-04-13T13:35:58.123Z,15.50
2018-04-13T13:38:25.084Z,15.40
2018-04-13T13:40:52.069Z,15.40
2018-04-13T13:43:19.901Z,15.30
2018-04-13T13:45:46.906Z,15.30
2018-04-13T13:48:14.675Z,15.30
2018-04-13T13:50:42.425Z,15.30
2018-04-13T13:53:09.401Z,15.30
2018-04-13T13:55:36.423Z,15.30
2018-04-13T13:58:03.461Z,15.40
2018-04-13T14:00:30.464Z,15.40
2018-04-13T14:02:57.444Z,15.40
2018-04-13T14:05:25.049Z,15.40
2018-04-13T14:07:52.116Z,15.40
2018-04-13T14:10:19.099Z,15.40
2018-04-13T14:12:46.099Z,15.30
2018-04-13T14:15:13.056Z,15.30
2018-04-13T14:17:40.058Z,15.30
2018-04-13T14:20:07.027Z,15.30
2018-04-13T14:22:34.052Z,15.20
2018-04-13T14:25:01.000Z,15.20
2018-04-13T14:27:28.001Z,15.20
2018-04-13T14:29:56.103Z,15.10
2018-04-13T14:32:25.343Z,15.00
2018-04-13T14:34:53.147Z,15.00
2018-04-13T14:37:20.125Z,15.00
2018-04-13T14:39:47.807Z,15.00
2018-04-13T14:42:14.772Z,15.00
2018-04-13T14:44:41.774Z,15.00
2018-04-13T14:47:08.757Z,14.90
2018-04-13T14:49:35.811Z,14.90
2018-04-13T14:52:02.808Z,14.90
2018-04-13T14:54:29.856Z,14.90
2018-04-13T14:56:56.833Z,14.80
2018-04-13T14:59:23.814Z,14.80
2018-04-13T15:01:50.781Z,14.80
2018-04-13T15:04:17.765Z,14.80
2018-04-13T15:06:44.736Z,14.80
2018-04-13T15:09:11.884Z,14.70
2018-04-13T15:11:38.848Z,14.70
2018-04-13T15:14:05.847Z,14.70
2018-04-13T15:16:32.805Z,14.70
2018-04-13T15:19:00.604Z,14.60
2018-04-13T15:21:27.627Z,14.60
2018-04-13T15:23:54.613Z,14.60
2018-04-13T15:26:22.344Z,14.60
2018-04-13T15:28:49.338Z,14.60
2018-04-13T15:31:17.067Z,14.60
2018-04-13T15:33:44.058Z,14.60
2018-04-13T15:36:12.019Z,14.60
2018-04-13T15:38:39.050Z,14.60
2018-04-13T15:41:06.012Z,14.60
2018-04-13T15:43:32.996Z,14.60
2018-04-13T15:45:59.982Z,14.50
2018-04-13T15:48:26.948Z,14.40
2018-04-13T15:50:54.673Z,14.30
2018-04-13T15:53:21.658Z,14.30
2018-04-13T15:55:50.159Z,14.20
2018-04-13T15:58:17.128Z,14.20
2018-04-13T16:00:44.884Z,14.10
2018-04-13T16:03:11.924Z,14.10
2018-04-13T16:05:38.897Z,14.10
2018-04-13T16:08:06.659Z,14.00
2018-04-13T16:10:33.677Z,14.00
2018-04-13T16:13:01.406Z,14.00
2018-04-13T16:15:28.359Z,14.00
2018-04-13T16:17:55.356Z,14.00
2018-04-13T16:20:22.343Z,14.00
2018-04-13T16:22:49.325Z,13.90
2018-04-13T16:25:16.298Z,13.90
2018-04-13T16:27:43.301Z,13.90
2018-04-13T16:30:10.265Z,13.90
2018-04-13T16:32:37.324Z,13.90
2018-04-13T16:35:04.277Z,13.90
2018-04-13T16:37:31.253Z,13.90
2018-04-13T16:39:58.293Z,13.90
2018-04-13T16:42:25.268Z,13.90
2018-04-13T16:44:52.239Z,13.80
2018-04-13T16:47:19.292Z,13.80
2018-04-13T16:49:46.255Z,13.80
2018-04-13T16:52:13.232Z,13.80
2018-04-13T16:54:40.250Z,13.80
2018-04-13T16:57:07.195Z,13.80
2018-04-13T16:59:34.167Z,13.90
2018-04-13T17:02:01.275Z,13.90
2018-04-13T17:04:28.244Z,13.80
2018-04-13T17:06:55.998Z,13.90
2018-04-13T17:09:22.982Z,13.80
2018-04-13T17:11:50.784Z,13.90
2018-04-13T17:14:17.900Z,13.90
2018-04-13T17:16:44.839Z,13.90
2018-04-13T17:19:11.823Z,13.90
2018-04-13T17:21:39.579Z,13.90
2018-04-13T17:24:06.547Z,13.80
2018-04-13T17:26:33.537Z,13.80
2018-04-13T17:29:00.582Z,13.90
2018-04-13T17:31:28.290Z,13.90
2018-04-13T17:33:55.298Z,13.90
2018-04-13T17:36:23.048Z,13.80
2018-04-13T17:38:50.020Z,13.80
2018-04-13T17:41:17.854Z,13.80
2018-04-13T17:43:44.836Z,13.80
2018-04-13T17:46:11.803Z,13.80
2018-04-13T17:48:38.795Z,13.80
2018-04-13T17:51:06.521Z,13.80
2018-04-13T17:53:33.512Z,13.80
2018-04-13T17:56:00.572Z,13.80
2018-04-13T17:58:27.566Z,13.80
2018-04-13T18:00:54.520Z,13.80
2018-04-13T18:03:21.493Z,13.70
2018-04-13T18:05:48.465Z,13.70
2018-04-13T18:08:15.430Z,13.70
2018-04-13T18:10:42.395Z,13.60
2018-04-13T18:13:09.373Z,13.60
2018-04-13T18:15:36.351Z,13.50
2018-04-13T18:18:04.081Z,13.40
2018-04-13T18:20:31.112Z,13.40
2018-04-13T18:22:58.117Z,13.40
2018-04-13T18:25:26.596Z,13.30
2018-04-13T18:27:53.560Z,13.30
2018-04-13T18:30:20.569Z,13.30
2018-04-13T18:32:48.314Z,13.20
2018-04-13T18:35:16.125Z,13.20
2018-04-13T18:37:43.947Z,13.20
2018-04-13T18:40:10.908Z,13.20
2018-04-13T18:42:37.877Z,13.20
2018-04-13T18:45:06.359Z,13.10
2018-04-13T18:47:33.328Z,13.10
2018-04-13T18:50:01.104Z,13.10
2018-04-13T18:52:28.850Z,13.00
2018-04-13T18:54:55.815Z,13.00
2018-04-13T18:57:22.775Z,13.00
2018-04-13T18:59:50.509Z,13.00
2018-04-13T19:02:17.514Z,13.00
2018-04-13T19:04:44.471Z,13.00
2018-04-13T19:07:11.507Z,13.00
2018-04-13T19:09:38.478Z,13.00
2018-04-13T19:12:05.438Z,13.00
2018-04-13T19:14:32.496Z,13.00
2018-04-13T19:17:00.237Z,13.00
2018-04-13T19:19:27.228Z,13.00
2018-04-13T19:21:54.192Z,13.00
2018-04-13T19:24:21.227Z,13.00
2018-04-13T19:26:48.319Z,13.00
2018-04-13T19:29:15.299Z,13.00
2018-04-13T19:31:43.052Z,13.00
2018-04-13T19:34:10.158Z,13.00
2018-04-13T19:36:37.864Z,13.00
2018-04-13T19:39:04.895Z,12.90
2018-04-13T19:41:32.631Z,12.90
2018-04-13T19:43:59.676Z,12.90
2018-04-13T19:46:26.688Z,12.90
2018-04-13T19:48:53.656Z,12.90
2018-04-13T19:51:20.641Z,12.90
2018-04-13T19:53:47.632Z,12.90
2018-04-13T19:56:15.389Z,12.90
2018-04-13T19:58:42.382Z,12.90
2018-04-13T20:01:09.371Z,12.90
2018-04-13T20:03:36.356Z,12.90
2018-04-13T20:06:03.425Z,12.90
2018-04-13T20:08:31.147Z,12.90
2018-04-13T20:10:58.302Z,12.90
2018-04-13T20:13:26.053Z,12.90
2018-04-13T20:15:53.871Z,12.80
2018-04-13T20:18:20.851Z,12.80
2018-04-13T20:20:47.810Z,12.80
2018-04-13T20:23:14.782Z,12.80
2018-04-13T20:25:41.804Z,12.70
2018-04-13T20:28:08.768Z,12.70
2018-04-13T20:30:35.739Z,12.70
2018-04-13T20:33:02.748Z,12.70
2018-04-13T20:35:30.620Z,12.60
2018-04-13T20:37:58.452Z,12.70
2018-04-13T20:40:25.432Z,12.60
2018-04-13T20:42:52.428Z,12.60
2018-04-13T20:45:20.151Z,12.60
2018-04-13T20:47:47.143Z,12.60
2018-04-13T20:50:14.139Z,12.60
2018-04-13T20:52:41.130Z,12.70
2018-04-13T20:55:08.096Z,12.60
2018-04-13T20:57:35.112Z,12.60
2018-04-13T21:00:03.044Z,12.60
2018-04-13T21:02:30.911Z,12.70
2018-04-13T21:04:57.880Z,12.60
2018-04-13T21:07:25.654Z,12.60
2018-04-13T21:09:52.620Z,12.60
2018-04-13T21:12:20.412Z,12.70
2018-04-13T21:14:48.231Z,12.70
2018-04-13T21:17:15.221Z,12.60
2018-04-13T21:19:42.238Z,12.70
2018-04-13T21:22:09.232Z,12.70
2018-04-13T21:24:36.218Z,12.70
2018-04-13T21:27:04.008Z,12.70
2018-04-13T21:29:32.483Z,12.70
2018-04-13T21:32:00.252Z,12.60
2018-04-13T21:34:28.076Z,12.60
2018-04-13T21:36:55.039Z,12.60
2018-04-13T21:39:22.058Z,12.70
2018-04-13T21:41:49.031Z,12.60
2018-04-13T21:44:16.027Z,12.60
2018-04-13T21:46:43.038Z,12.60
2018-04-13T21:49:10.042Z,12.60
2018-04-13T21:51:37.016Z,12.60
2018-04-13T21:54:03.992Z,12.60
2018-04-13T21:56:31.748Z,12.50
2018-04-13T21:58:58.719Z,12.50
2018-04-13T22:01:25.700Z,12.50
2018-04-13T22:03:52.691Z,12.50
2018-04-13T22:06:19.656Z,12.50
2018-04-13T22:08:46.624Z,12.50
2018-04-13T22:11:13.584Z,12.50
2018-04-13T22:13:45.447Z,12.50
2018-04-13T22:16:12.484Z,12.50
2018-04-13T22:18:39.478Z,12.50
2018-04-13T22:21:06.436Z,12.40
2018-04-13T22:23:33.655Z,12.40
2018-04-13T22:26:00.659Z,12.40
2018-04-13T22:28:27.638Z,12.40
2018-04-13T22:30:54.774Z,12.40
2018-04-13T22:33:21.738Z,12.40
2018-04-13T22:35:48.719Z,12.30
2018-04-13T22:38:16.435Z,12.30
2018-04-13T22:40:43.463Z,12.30
2018-04-13T22:43:11.195Z,12.30
2018-04-13T22:45:38.205Z,12.20
2018-04-13T22:48:05.216Z,12.30
2018-04-13T22:50:32.204Z,12.30
2018-04-13T22:52:59.963Z,12.20
2018-04-13T22:55:26.965Z,12.20
2018-04-13T22:57:54.040Z,12.20
2018-04-13T23:00:21.038Z,12.20
2018-04-13T23:02:48.047Z,12.10
2018-04-13T23:05:15.022Z,12.10
2018-04-13T23:07:42.066Z,12.10
2018-04-13T23:10:09.808Z,12.10
2018-04-13T23:12:37.553Z,12.10
2018-04-13T23:15:04.733Z,12.10
2018-04-13T23:17:31.714Z,12.10
2018-04-13T23:19:59.514Z,12.10
2018-04-13T23:22:32.316Z,12.10
2018-04-13T23:24:59.341Z,12.00
2018-04-13T23:27:26.313Z,12.00
2018-04-13T23:29:53.408Z,12.00
2018-04-13T23:32:20.380Z,11.90
2018-04-13T23:34:47.347Z,11.90
2018-04-13T23:37:14.321Z,11.90
2018-04-13T23:39:42.109Z,11.90
2018-04-13T23:42:09.861Z,11.90
2018-04-13T23:44:36.899Z,11.90
2018-04-13T23:47:03.893Z,12.20
2018-04-13T23:49:32.403Z,11.90
2018-04-13T23:51:59.422Z,11.90
2018-04-13T23:54:26.387Z,11.90
2018-04-13T23:56:53.377Z,11.90
2018-04-13T23:59:21.130Z,11.80
